sensor_id;sensor_type;location;lat;lon;timestamp;P1;durP1;ratioP1;P2;durP2;ratioP2
1879;SDS011;49285;49.002;8.390;2023-06-10T00:01:47;9.47;;;8.43;;
1879;SDS011;49285;49.002;8.390;2023-06-10T00:04:16;8.70;;;8.00;;
1879;SDS011;49285;49.002;8.390;2023-06-10T00:06:45;8.63;;;7.93;;
1879;SDS011;49285;49.002;8.390;2023-06-10T00:09:14;9.73;;;8.80;;
1879;SDS011;49285;49.002;8.390;2023-06-10T00:11:40;9.50;;;8.50;;
1879;SDS011;49285;49.002;8.390;2023-06-10T00:14:06;12.27;;;8.60;;
1879;SDS011;49285;49.002;8.390;2023-06-10T00:16:32;8.70;;;8.00;;
1879;SDS011;49285;49.002;8.390;2023-06-10T00:18:59;9.57;;;8.77;;
1879;SDS011;49285;49.002;8.390;2023-06-10T00:21:30;8.90;;;8.10;;
1879;SDS011;49285;49.002;8.390;2023-06-10T00:24:05;10.07;;;9.17;;
1879;SDS011;49285;49.002;8.390;2023-06-10T00:26:34;10.53;;;9.43;;
1879;SDS011;49285;49.002;8.390;2023-06-10T00:29:00;9.87;;;8.90;;
1879;SDS011;49285;49.002;8.390;2023-06-10T00:31:26;9.97;;;9.07;;
1879;SDS011;49285;49.002;8.390;2023-06-10T00:33:52;9.60;;;8.80;;
1879;SDS011;49285;49.002;8.390;2023-06-10T00:36:17;10.07;;;9.07;;
1879;SDS011;49285;49.002;8.390;2023-06-10T00:38:43;9.40;;;8.60;;
1879;SDS011;49285;49.002;8.390;2023-06-10T00:41:08;9.13;;;8.23;;
1879;SDS011;49285;49.002;8.390;2023-06-10T00:43:34;9.50;;;8.67;;
1879;SDS011;49285;49.002;8.390;2023-06-10T00:46:00;8.70;;;8.00;;
1879;SDS011;49285;49.002;8.390;2023-06-10T00:48:26;9.87;;;8.80;;
1879;SDS011;49285;49.002;8.390;2023-06-10T00:50:52;10.27;;;8.70;;
1879;SDS011;49285;49.002;8.390;2023-06-10T00:53:18;9.80;;;9.00;;
1879;SDS011;49285;49.002;8.390;2023-06-10T00:55:45;10.67;;;9.57;;
1879;SDS011;49285;49.002;8.390;2023-06-10T00:58:12;9.40;;;8.50;;
1879;SDS011;49285;49.002;8.390;2023-06-10T01:00:38;9.30;;;8.50;;
1879;SDS011;49285;49.002;8.390;2023-06-10T01:03:04;9.00;;;8.30;;
1879;SDS011;49285;49.002;8.390;2023-06-10T01:05:35;9.70;;;8.80;;
1879;SDS011;49285;49.002;8.390;2023-06-10T01:10:45;9.60;;;8.70;;
1879;SDS011;49285;49.002;8.390;2023-06-10T01:13:16;9.10;;;8.30;;
1879;SDS011;49285;49.002;8.390;2023-06-10T01:15:43;9.43;;;8.20;;
1879;SDS011;49285;49.002;8.390;2023-06-10T01:18:09;9.10;;;8.40;;
1879;SDS011;49285;49.002;8.390;2023-06-10T01:20:38;8.67;;;7.97;;
1879;SDS011;49285;49.002;8.390;2023-06-10T01:23:05;9.10;;;8.20;;
1879;SDS011;49285;49.002;8.390;2023-06-10T01:25:31;11.43;;;8.90;;
1879;SDS011;49285;49.002;8.390;2023-06-10T01:30:35;9.30;;;8.50;;
1879;SDS011;49285;49.002;8.390;2023-06-10T01:33:06;10.70;;;9.70;;
1879;SDS011;49285;49.002;8.390;2023-06-10T01:35:34;9.73;;;8.90;;
1879;SDS011;49285;49.002;8.390;2023-06-10T01:38:02;20.03;;;9.17;;
1879;SDS011;49285;49.002;8.390;2023-06-10T01:40:29;9.90;;;9.00;;
1879;SDS011;49285;49.002;8.390;2023-06-10T01:42:55;10.03;;;9.13;;
1879;SDS011;49285;49.002;8.390;2023-06-10T01:45:21;9.67;;;8.77;;
1879;SDS011;49285;49.002;8.390;2023-06-10T01:47:47;11.50;;;9.03;;
1879;SDS011;49285;49.002;8.390;2023-06-10T01:50:12;10.37;;;9.37;;
1879;SDS011;49285;49.002;8.390;2023-06-10T01:52:38;10.07;;;9.23;;
1879;SDS011;49285;49.002;8.390;2023-06-10T01:55:03;9.73;;;8.83;;
1879;SDS011;49285;49.002;8.390;2023-06-10T01:57:29;9.90;;;9.10;;
1879;SDS011;49285;49.002;8.390;2023-06-10T01:59:55;10.50;;;9.40;;
1879;SDS011;49285;49.002;8.390;2023-06-10T02:02:20;8.87;;;8.17;;
1879;SDS011;49285;49.002;8.390;2023-06-10T02:04:47;9.87;;;8.97;;
1879;SDS011;49285;49.002;8.390;2023-06-10T02:07:12;9.60;;;8.60;;
1879;SDS011;49285;49.002;8.390;2023-06-10T02:09:38;9.03;;;8.30;;
1879;SDS011;49285;49.002;8.390;2023-06-10T02:12:04;9.73;;;8.93;;
1879;SDS011;49285;49.002;8.390;2023-06-10T02:14:31;8.93;;;8.10;;
1879;SDS011;49285;49.002;8.390;2023-06-10T02:16:58;9.20;;;8.30;;
1879;SDS011;49285;49.002;8.390;2023-06-10T02:19:23;10.07;;;9.17;;
1879;SDS011;49285;49.002;8.390;2023-06-10T02:21:50;10.27;;;8.07;;
1879;SDS011;49285;49.002;8.390;2023-06-10T02:24:16;10.13;;;9.30;;
1879;SDS011;49285;49.002;8.390;2023-06-10T02:26:41;10.57;;;9.40;;
1879;SDS011;49285;49.002;8.390;2023-06-10T02:29:07;9.07;;;8.30;;
1879;SDS011;49285;49.002;8.390;2023-06-10T02:31:32;9.33;;;8.53;;
1879;SDS011;49285;49.002;8.390;2023-06-10T02:34:00;10.23;;;9.40;;
1879;SDS011;49285;49.002;8.390;2023-06-10T02:36:26;10.23;;;9.33;;
1879;SDS011;49285;49.002;8.390;2023-06-10T02:38:52;9.70;;;8.73;;
1879;SDS011;49285;49.002;8.390;2023-06-10T02:41:18;9.90;;;9.00;;
1879;SDS011;49285;49.002;8.390;2023-06-10T02:43:43;10.30;;;9.40;;
1879;SDS011;49285;49.002;8.390;2023-06-10T02:46:09;10.37;;;9.47;;
1879;SDS011;49285;49.002;8.390;2023-06-10T02:48:40;9.77;;;8.87;;
1879;SDS011;49285;49.002;8.390;2023-06-10T02:51:07;10.27;;;9.47;;
1879;SDS011;49285;49.002;8.390;2023-06-10T02:53:33;12.93;;;10.13;;
1879;SDS011;49285;49.002;8.390;2023-06-10T02:55:58;9.70;;;8.90;;
1879;SDS011;49285;49.002;8.390;2023-06-10T02:58:24;9.97;;;9.03;;
1879;SDS011;49285;49.002;8.390;2023-06-10T03:00:51;10.03;;;9.13;;
1879;SDS011;49285;49.002;8.390;2023-06-10T03:03:16;10.27;;;9.33;;
1879;SDS011;49285;49.002;8.390;2023-06-10T03:05:42;9.57;;;8.77;;
1879;SDS011;49285;49.002;8.390;2023-06-10T03:08:07;10.60;;;9.70;;
1879;SDS011;49285;49.002;8.390;2023-06-10T03:10:33;9.67;;;8.87;;
1879;SDS011;49285;49.002;8.390;2023-06-10T03:12:58;10.20;;;9.23;;
1879;SDS011;49285;49.002;8.390;2023-06-10T03:15:24;10.00;;;9.00;;
1879;SDS011;49285;49.002;8.390;2023-06-10T03:17:50;9.80;;;8.90;;
1879;SDS011;49285;49.002;8.390;2023-06-10T03:20:15;9.67;;;8.77;;
1879;SDS011;49285;49.002;8.390;2023-06-10T03:22:41;9.17;;;8.30;;
1879;SDS011;49285;49.002;8.390;2023-06-10T03:25:07;9.00;;;8.30;;
1879;SDS011;49285;49.002;8.390;2023-06-10T03:27:38;9.73;;;8.93;;
1879;SDS011;49285;49.002;8.390;2023-06-10T03:30:05;10.00;;;9.00;;
1879;SDS011;49285;49.002;8.390;2023-06-10T03:32:31;9.97;;;9.07;;
1879;SDS011;49285;49.002;8.390;2023-06-10T03:34:56;9.93;;;9.03;;
1879;SDS011;49285;49.002;8.390;2023-06-10T03:37:23;9.07;;;8.27;;
1879;SDS011;49285;49.002;8.390;2023-06-10T03:39:52;9.97;;;9.10;;
1879;SDS011;49285;49.002;8.390;2023-06-10T03:42:17;10.33;;;9.37;;
1879;SDS011;49285;49.002;8.390;2023-06-10T03:44:43;10.27;;;9.10;;
1879;SDS011;49285;49.002;8.390;2023-06-10T03:47:08;10.73;;;9.63;;
1879;SDS011;49285;49.002;8.390;2023-06-10T03:49:34;10.80;;;9.80;;
1879;SDS011;49285;49.002;8.390;2023-06-10T03:52:01;11.27;;;10.27;;
1879;SDS011;49285;49.002;8.390;2023-06-10T03:54:27;9.10;;;8.33;;
1879;SDS011;49285;49.002;8.390;2023-06-10T03:56:52;9.60;;;8.70;;
1879;SDS011;49285;49.002;8.390;2023-06-10T03:59:18;11.53;;;10.40;;
1879;SDS011;49285;49.002;8.390;2023-06-10T04:01:44;9.13;;;8.33;;
1879;SDS011;49285;49.002;8.390;2023-06-10T04:04:11;9.70;;;8.83;;
1879;SDS011;49285;49.002;8.390;2023-06-10T04:06:41;11.27;;;9.37;;
1879;SDS011;49285;49.002;8.390;2023-06-10T04:09:08;9.67;;;8.70;;
1879;SDS011;49285;49.002;8.390;2023-06-10T04:11:34;9.03;;;8.23;;
1879;SDS011;49285;49.002;8.390;2023-06-10T04:14:00;8.90;;;8.10;;
1879;SDS011;49285;49.002;8.390;2023-06-10T04:16:26;9.40;;;8.50;;
1879;SDS011;49285;49.002;8.390;2023-06-10T04:18:52;9.00;;;8.03;;
1879;SDS011;49285;49.002;8.390;2023-06-10T04:21:18;9.10;;;7.87;;
1879;SDS011;49285;49.002;8.390;2023-06-10T04:23:44;9.00;;;8.20;;
1879;SDS011;49285;49.002;8.390;2023-06-10T04:26:09;10.23;;;9.10;;
1879;SDS011;49285;49.002;8.390;2023-06-10T04:28:37;9.57;;;8.77;;
1879;SDS011;49285;49.002;8.390;2023-06-10T04:31:02;9.93;;;9.03;;
1879;SDS011;49285;49.002;8.390;2023-06-10T04:33:29;10.73;;;9.73;;
1879;SDS011;49285;49.002;8.390;2023-06-10T04:35:57;9.90;;;8.87;;
1879;SDS011;49285;49.002;8.390;2023-06-10T04:38:23;8.57;;;7.87;;
1879;SDS011;49285;49.002;8.390;2023-06-10T04:40:48;10.30;;;8.50;;
1879;SDS011;49285;49.002;8.390;2023-06-10T04:43:14;9.60;;;8.80;;
1879;SDS011;49285;49.002;8.390;2023-06-10T04:45:40;9.70;;;8.80;;
1879;SDS011;49285;49.002;8.390;2023-06-10T04:48:09;8.90;;;8.00;;
1879;SDS011;49285;49.002;8.390;2023-06-10T04:50:36;10.50;;;9.50;;
1879;SDS011;49285;49.002;8.390;2023-06-10T04:53:02;9.43;;;8.63;;
1879;SDS011;49285;49.002;8.390;2023-06-10T04:55:28;9.50;;;8.63;;
1879;SDS011;49285;49.002;8.390;2023-06-10T04:57:54;9.60;;;8.70;;
1879;SDS011;49285;49.002;8.390;2023-06-10T05:00:20;10.07;;;9.17;;
1879;SDS011;49285;49.002;8.390;2023-06-10T05:02:46;9.47;;;8.67;;
1879;SDS011;49285;49.002;8.390;2023-06-10T05:05:15;11.70;;;10.60;;
1879;SDS011;49285;49.002;8.390;2023-06-10T05:07:41;11.97;;;10.97;;
1879;SDS011;49285;49.002;8.390;2023-06-10T05:10:07;10.13;;;9.23;;
1879;SDS011;49285;49.002;8.390;2023-06-10T05:12:33;10.70;;;8.43;;
1879;SDS011;49285;49.002;8.390;2023-06-10T05:14:58;8.97;;;8.07;;
1879;SDS011;49285;49.002;8.390;2023-06-10T05:17:24;9.10;;;7.63;;
1879;SDS011;49285;49.002;8.390;2023-06-10T05:19:50;11.10;;;7.83;;
1879;SDS011;49285;49.002;8.390;2023-06-10T05:22:16;9.40;;;8.50;;
1879;SDS011;49285;49.002;8.390;2023-06-10T05:24:43;8.80;;;8.00;;
1879;SDS011;49285;49.002;8.390;2023-06-10T05:27:09;9.40;;;8.60;;
1879;SDS011;49285;49.002;8.390;2023-06-10T05:29:35;7.70;;;7.00;;
1879;SDS011;49285;49.002;8.390;2023-06-10T05:32:00;8.70;;;7.87;;
1879;SDS011;49285;49.002;8.390;2023-06-10T05:34:28;9.80;;;8.03;;
1879;SDS011;49285;49.002;8.390;2023-06-10T05:36:54;8.67;;;7.87;;
1879;SDS011;49285;49.002;8.390;2023-06-10T05:39:20;8.20;;;7.50;;
1879;SDS011;49285;49.002;8.390;2023-06-10T05:41:45;10.70;;;9.70;;
1879;SDS011;49285;49.002;8.390;2023-06-10T05:44:11;10.30;;;9.30;;
1879;SDS011;49285;49.002;8.390;2023-06-10T05:46:37;8.67;;;7.87;;
1879;SDS011;49285;49.002;8.390;2023-06-10T05:49:02;10.93;;;9.90;;
1879;SDS011;49285;49.002;8.390;2023-06-10T05:51:28;7.97;;;7.33;;
1879;SDS011;49285;49.002;8.390;2023-06-10T05:53:54;8.63;;;7.73;;
1879;SDS011;49285;49.002;8.390;2023-06-10T05:56:19;9.13;;;8.33;;
1879;SDS011;49285;49.002;8.390;2023-06-10T05:58:48;8.67;;;7.87;;
1879;SDS011;49285;49.002;8.390;2023-06-10T06:01:14;10.60;;;9.60;;
1879;SDS011;49285;49.002;8.390;2023-06-10T06:03:40;12.80;;;11.60;;
1879;SDS011;49285;49.002;8.390;2023-06-10T06:06:05;12.30;;;11.10;;
1879;SDS011;49285;49.002;8.390;2023-06-10T06:08:31;11.10;;;9.87;;
1879;SDS011;49285;49.002;8.390;2023-06-10T06:10:57;10.13;;;9.13;;
1879;SDS011;49285;49.002;8.390;2023-06-10T06:13:23;8.13;;;7.37;;
1879;SDS011;49285;49.002;8.390;2023-06-10T06:15:49;11.07;;;10.13;;
1879;SDS011;49285;49.002;8.390;2023-06-10T06:18:15;12.80;;;11.50;;
1879;SDS011;49285;49.002;8.390;2023-06-10T06:20:41;8.80;;;7.77;;
1879;SDS011;49285;49.002;8.390;2023-06-10T06:23:06;8.30;;;7.13;;
1879;SDS011;49285;49.002;8.390;2023-06-10T06:25:34;9.73;;;8.73;;
1879;SDS011;49285;49.002;8.390;2023-06-10T06:28:01;10.50;;;9.50;;
1879;SDS011;49285;49.002;8.390;2023-06-10T06:30:27;13.10;;;9.90;;
1879;SDS011;49285;49.002;8.390;2023-06-10T06:32:52;8.23;;;7.53;;
1879;SDS011;49285;49.002;8.390;2023-06-10T06:35:18;10.70;;;9.73;;
1879;SDS011;49285;49.002;8.390;2023-06-10T06:37:44;14.57;;;13.07;;
1879;SDS011;49285;49.002;8.390;2023-06-10T06:40:09;11.80;;;10.10;;
1879;SDS011;49285;49.002;8.390;2023-06-10T06:42:35;12.17;;;10.97;;
1879;SDS011;49285;49.002;8.390;2023-06-10T06:45:01;12.77;;;11.67;;
1879;SDS011;49285;49.002;8.390;2023-06-10T06:47:27;9.67;;;8.77;;
1879;SDS011;49285;49.002;8.390;2023-06-10T06:49:52;10.90;;;9.90;;
1879;SDS011;49285;49.002;8.390;2023-06-10T06:52:18;10.63;;;9.63;;
1879;SDS011;49285;49.002;8.390;2023-06-10T06:54:44;8.43;;;7.63;;
1879;SDS011;49285;49.002;8.390;2023-06-10T06:57:09;9.23;;;8.23;;
1879;SDS011;49285;49.002;8.390;2023-06-10T06:59:35;12.37;;;8.40;;
1879;SDS011;49285;49.002;8.390;2023-06-10T07:02:02;8.40;;;7.57;;
1879;SDS011;49285;49.002;8.390;2023-06-10T07:04:28;17.63;;;16.00;;
1879;SDS011;49285;49.002;8.390;2023-06-10T07:06:53;10.07;;;8.23;;
1879;SDS011;49285;49.002;8.390;2023-06-10T07:09:19;9.97;;;7.23;;
1879;SDS011;49285;49.002;8.390;2023-06-10T07:11:45;7.87;;;7.10;;
1879;SDS011;49285;49.002;8.390;2023-06-10T07:14:10;9.67;;;7.57;;
1879;SDS011;49285;49.002;8.390;2023-06-10T07:16:36;7.33;;;6.73;;
1879;SDS011;49285;49.002;8.390;2023-06-10T07:19:01;8.13;;;6.80;;
1879;SDS011;49285;49.002;8.390;2023-06-10T07:21:27;7.80;;;7.10;;
1879;SDS011;49285;49.002;8.390;2023-06-10T07:23:53;8.03;;;7.23;;
1879;SDS011;49285;49.002;8.390;2023-06-10T07:26:19;8.30;;;7.40;;
1879;SDS011;49285;49.002;8.390;2023-06-10T07:28:46;7.93;;;7.23;;
1879;SDS011;49285;49.002;8.390;2023-06-10T07:31:12;8.00;;;7.30;;
1879;SDS011;49285;49.002;8.390;2023-06-10T07:33:37;7.60;;;7.00;;
1879;SDS011;49285;49.002;8.390;2023-06-10T07:36:07;7.90;;;7.20;;
1879;SDS011;49285;49.002;8.390;2023-06-10T07:38:32;7.50;;;6.90;;
1879;SDS011;49285;49.002;8.390;2023-06-10T07:40:58;8.20;;;7.40;;
1879;SDS011;49285;49.002;8.390;2023-06-10T07:43:24;8.73;;;7.93;;
1879;SDS011;49285;49.002;8.390;2023-06-10T07:45:50;8.47;;;7.60;;
1879;SDS011;49285;49.002;8.390;2023-06-10T07:48:15;8.43;;;7.70;;
1879;SDS011;49285;49.002;8.390;2023-06-10T07:50:41;8.43;;;7.73;;
1879;SDS011;49285;49.002;8.390;2023-06-10T07:53:06;7.40;;;6.80;;
1879;SDS011;49285;49.002;8.390;2023-06-10T07:55:32;11.50;;;7.63;;
1879;SDS011;49285;49.002;8.390;2023-06-10T07:57:58;7.60;;;6.97;;
1879;SDS011;49285;49.002;8.390;2023-06-10T08:00:23;10.00;;;7.67;;
1879;SDS011;49285;49.002;8.390;2023-06-10T08:02:49;7.90;;;7.17;;
1879;SDS011;49285;49.002;8.390;2023-06-10T08:05:15;7.47;;;6.87;;
1879;SDS011;49285;49.002;8.390;2023-06-10T08:07:41;7.73;;;7.13;;
1879;SDS011;49285;49.002;8.390;2023-06-10T08:10:07;9.80;;;7.00;;
1879;SDS011;49285;49.002;8.390;2023-06-10T08:12:33;8.10;;;7.30;;
1879;SDS011;49285;49.002;8.390;2023-06-10T08:15:00;7.93;;;6.33;;
1879;SDS011;49285;49.002;8.390;2023-06-10T08:17:25;8.67;;;7.80;;
1879;SDS011;49285;49.002;8.390;2023-06-10T08:19:51;7.60;;;6.80;;
1879;SDS011;49285;49.002;8.390;2023-06-10T08:22:17;8.30;;;7.50;;
1879;SDS011;49285;49.002;8.390;2023-06-10T08:24:42;7.60;;;7.00;;
1879;SDS011;49285;49.002;8.390;2023-06-10T08:27:08;7.40;;;6.70;;
1879;SDS011;49285;49.002;8.390;2023-06-10T08:29:34;7.30;;;6.70;;
1879;SDS011;49285;49.002;8.390;2023-06-10T08:31:59;6.67;;;6.07;;
1879;SDS011;49285;49.002;8.390;2023-06-10T08:34:25;7.07;;;6.47;;
1879;SDS011;49285;49.002;8.390;2023-06-10T08:36:51;6.90;;;6.27;;
1879;SDS011;49285;49.002;8.390;2023-06-10T08:39:18;7.40;;;6.80;;
1879;SDS011;49285;49.002;8.390;2023-06-10T08:41:46;6.80;;;6.30;;
1879;SDS011;49285;49.002;8.390;2023-06-10T08:44:35;7.67;;;6.63;;
1879;SDS011;49285;49.002;8.390;2023-06-10T08:47:13;7.10;;;6.50;;
1879;SDS011;49285;49.002;8.390;2023-06-10T08:49:43;10.23;;;7.17;;
1879;SDS011;49285;49.002;8.390;2023-06-10T08:52:11;7.27;;;6.63;;
1879;SDS011;49285;49.002;8.390;2023-06-10T08:54:48;7.83;;;6.67;;
1879;SDS011;49285;49.002;8.390;2023-06-10T08:57:17;7.70;;;7.00;;
1879;SDS011;49285;49.002;8.390;2023-06-10T08:59:45;6.93;;;6.33;;
1879;SDS011;49285;49.002;8.390;2023-06-10T09:02:11;8.20;;;7.40;;
1879;SDS011;49285;49.002;8.390;2023-06-10T09:04:38;7.10;;;6.40;;
1879;SDS011;49285;49.002;8.390;2023-06-10T09:07:04;7.70;;;7.07;;
1879;SDS011;49285;49.002;8.390;2023-06-10T09:09:31;7.00;;;6.40;;
1879;SDS011;49285;49.002;8.390;2023-06-10T09:11:59;8.17;;;7.47;;
1879;SDS011;49285;49.002;8.390;2023-06-10T09:14:25;8.27;;;7.43;;
1879;SDS011;49285;49.002;8.390;2023-06-10T09:16:50;8.20;;;7.50;;
1879;SDS011;49285;49.002;8.390;2023-06-10T09:19:16;8.03;;;7.27;;
1879;SDS011;49285;49.002;8.390;2023-06-10T09:21:42;7.93;;;7.23;;
1879;SDS011;49285;49.002;8.390;2023-06-10T09:24:07;7.70;;;7.10;;
1879;SDS011;49285;49.002;8.390;2023-06-10T09:26:33;8.27;;;7.47;;
1879;SDS011;49285;49.002;8.390;2023-06-10T09:29:03;7.50;;;6.53;;
1879;SDS011;49285;49.002;8.390;2023-06-10T09:31:30;8.13;;;6.80;;
1879;SDS011;49285;49.002;8.390;2023-06-10T09:34:05;7.40;;;6.80;;
1879;SDS011;49285;49.002;8.390;2023-06-10T09:36:32;9.43;;;6.80;;
1879;SDS011;49285;49.002;8.390;2023-06-10T09:38:58;7.80;;;7.10;;
1879;SDS011;49285;49.002;8.390;2023-06-10T09:41:39;7.67;;;6.97;;
1879;SDS011;49285;49.002;8.390;2023-06-10T09:44:12;8.10;;;7.20;;
1879;SDS011;49285;49.002;8.390;2023-06-10T09:46:39;7.80;;;7.10;;
1879;SDS011;49285;49.002;8.390;2023-06-10T09:49:05;7.67;;;6.97;;
1879;SDS011;49285;49.002;8.390;2023-06-10T09:51:31;8.03;;;7.33;;
1879;SDS011;49285;49.002;8.390;2023-06-10T09:53:57;7.83;;;6.80;;
1879;SDS011;49285;49.002;8.390;2023-06-10T09:56:34;7.93;;;7.23;;
1879;SDS011;49285;49.002;8.390;2023-06-10T09:59:00;8.17;;;7.47;;
1879;SDS011;49285;49.002;8.390;2023-06-10T10:01:27;8.13;;;7.43;;
1879;SDS011;49285;49.002;8.390;2023-06-10T10:03:53;7.53;;;6.93;;
1879;SDS011;49285;49.002;8.390;2023-06-10T10:06:19;12.13;;;7.30;;
1879;SDS011;49285;49.002;8.390;2023-06-10T10:08:46;8.67;;;7.93;;
1879;SDS011;49285;49.002;8.390;2023-06-10T10:11:13;8.30;;;7.50;;
1879;SDS011;49285;49.002;8.390;2023-06-10T10:13:41;9.70;;;7.03;;
1879;SDS011;49285;49.002;8.390;2023-06-10T10:16:11;7.30;;;6.70;;
1879;SDS011;49285;49.002;8.390;2023-06-10T10:18:51;8.17;;;7.47;;
1879;SDS011;49285;49.002;8.390;2023-06-10T10:21:21;7.73;;;7.13;;
1879;SDS011;49285;49.002;8.390;2023-06-10T10:26:21;9.33;;;8.30;;
1879;SDS011;49285;49.002;8.390;2023-06-10T10:28:51;8.30;;;7.50;;
1879;SDS011;49285;49.002;8.390;2023-06-10T10:31:23;7.50;;;6.90;;
1879;SDS011;49285;49.002;8.390;2023-06-10T10:33:54;7.97;;;7.27;;
1879;SDS011;49285;49.002;8.390;2023-06-10T10:36:22;8.10;;;7.03;;
1879;SDS011;49285;49.002;8.390;2023-06-10T10:38:48;7.43;;;6.83;;
1879;SDS011;49285;49.002;8.390;2023-06-10T10:41:14;7.70;;;6.90;;
1879;SDS011;49285;49.002;8.390;2023-06-10T10:43:41;8.30;;;7.60;;
1879;SDS011;49285;49.002;8.390;2023-06-10T10:46:13;8.57;;;7.77;;
1879;SDS011;49285;49.002;8.390;2023-06-10T10:48:41;9.43;;;6.80;;
1879;SDS011;49285;49.002;8.390;2023-06-10T10:51:08;8.17;;;6.90;;
1879;SDS011;49285;49.002;8.390;2023-06-10T10:53:36;8.00;;;7.20;;
1879;SDS011;49285;49.002;8.390;2023-06-10T10:56:07;7.80;;;7.10;;
1879;SDS011;49285;49.002;8.390;2023-06-10T10:58:38;7.10;;;6.50;;
1879;SDS011;49285;49.002;8.390;2023-06-10T11:01:11;7.73;;;7.07;;
1879;SDS011;49285;49.002;8.390;2023-06-10T11:03:44;7.80;;;7.00;;
1879;SDS011;49285;49.002;8.390;2023-06-10T11:06:14;8.20;;;7.40;;
1879;SDS011;49285;49.002;8.390;2023-06-10T11:16:27;7.40;;;6.77;;
1879;SDS011;49285;49.002;8.390;2023-06-10T11:18:53;7.30;;;6.60;;
1879;SDS011;49285;49.002;8.390;2023-06-10T11:21:20;7.70;;;7.10;;
1879;SDS011;49285;49.002;8.390;2023-06-10T11:23:50;9.03;;;8.07;;
1879;SDS011;49285;49.002;8.390;2023-06-10T11:31:23;7.90;;;7.20;;
1879;SDS011;49285;49.002;8.390;2023-06-10T11:33:52;8.57;;;7.77;;
1879;SDS011;49285;49.002;8.390;2023-06-10T11:36:26;7.83;;;7.20;;
1879;SDS011;49285;49.002;8.390;2023-06-10T11:38:54;7.50;;;6.90;;
1879;SDS011;49285;49.002;8.390;2023-06-10T11:41:27;7.23;;;6.63;;
1879;SDS011;49285;49.002;8.390;2023-06-10T11:43:54;6.90;;;6.30;;
1879;SDS011;49285;49.002;8.390;2023-06-10T11:46:23;7.70;;;6.80;;
1879;SDS011;49285;49.002;8.390;2023-06-10T11:48:52;7.87;;;7.27;;
1879;SDS011;49285;49.002;8.390;2023-06-10T11:51:27;7.00;;;6.30;;
1879;SDS011;49285;49.002;8.390;2023-06-10T11:53:55;7.10;;;6.50;;
1879;SDS011;49285;49.002;8.390;2023-06-10T11:56:22;7.87;;;6.60;;
1879;SDS011;49285;49.002;8.390;2023-06-10T12:01:26;7.43;;;6.83;;
1879;SDS011;49285;49.002;8.390;2023-06-10T12:06:25;6.50;;;6.00;;
1879;SDS011;49285;49.002;8.390;2023-06-10T12:08:51;7.17;;;6.47;;
1879;SDS011;49285;49.002;8.390;2023-06-10T12:11:16;6.83;;;6.23;;
1879;SDS011;49285;49.002;8.390;2023-06-10T12:13:46;8.70;;;6.40;;
1879;SDS011;49285;49.002;8.390;2023-06-10T12:16:15;6.90;;;6.30;;
1879;SDS011;49285;49.002;8.390;2023-06-10T12:18:43;6.80;;;6.23;;
1879;SDS011;49285;49.002;8.390;2023-06-10T12:21:17;6.30;;;5.80;;
1879;SDS011;49285;49.002;8.390;2023-06-10T12:24:01;5.90;;;5.40;;
1879;SDS011;49285;49.002;8.390;2023-06-10T12:26:36;6.60;;;5.97;;
1879;SDS011;49285;49.002;8.390;2023-06-10T12:29:23;6.80;;;5.93;;
1879;SDS011;49285;49.002;8.390;2023-06-10T12:37:04;6.03;;;5.53;;
1879;SDS011;49285;49.002;8.390;2023-06-10T12:39:32;6.27;;;5.77;;
1879;SDS011;49285;49.002;8.390;2023-06-10T12:41:58;5.60;;;5.20;;
1879;SDS011;49285;49.002;8.390;2023-06-10T12:44:28;6.23;;;5.63;;
1879;SDS011;49285;49.002;8.390;2023-06-10T12:46:58;6.33;;;5.83;;
1879;SDS011;49285;49.002;8.390;2023-06-10T12:49:24;5.87;;;5.30;;
1879;SDS011;49285;49.002;8.390;2023-06-10T12:51:52;6.20;;;5.70;;
1879;SDS011;49285;49.002;8.390;2023-06-10T12:54:18;5.93;;;5.43;;
1879;SDS011;49285;49.002;8.390;2023-06-10T12:56:44;5.30;;;4.90;;
1879;SDS011;49285;49.002;8.390;2023-06-10T12:59:12;6.20;;;5.70;;
1879;SDS011;49285;49.002;8.390;2023-06-10T13:01:37;6.27;;;5.60;;
1879;SDS011;49285;49.002;8.390;2023-06-10T13:04:04;6.53;;;5.83;;
1879;SDS011;49285;49.002;8.390;2023-06-10T13:06:31;6.00;;;5.53;;
1879;SDS011;49285;49.002;8.390;2023-06-10T13:09:01;6.10;;;5.60;;
1879;SDS011;49285;49.002;8.390;2023-06-10T13:11:27;5.73;;;5.23;;
1879;SDS011;49285;49.002;8.390;2023-06-10T13:13:53;5.80;;;5.27;;
1879;SDS011;49285;49.002;8.390;2023-06-10T13:16:18;6.37;;;5.87;;
1879;SDS011;49285;49.002;8.390;2023-06-10T13:18:44;12.03;;;6.23;;
1879;SDS011;49285;49.002;8.390;2023-06-10T13:21:09;7.20;;;6.60;;
1879;SDS011;49285;49.002;8.390;2023-06-10T13:23:35;6.50;;;6.00;;
1879;SDS011;49285;49.002;8.390;2023-06-10T13:26:00;6.20;;;5.67;;
1879;SDS011;49285;49.002;8.390;2023-06-10T13:28:28;10.70;;;6.10;;
1879;SDS011;49285;49.002;8.390;2023-06-10T13:30:53;6.30;;;5.80;;
1879;SDS011;49285;49.002;8.390;2023-06-10T13:33:19;6.40;;;5.80;;
1879;SDS011;49285;49.002;8.390;2023-06-10T13:35:44;6.73;;;5.73;;
1879;SDS011;49285;49.002;8.390;2023-06-10T13:38:10;5.87;;;5.37;;
1879;SDS011;49285;49.002;8.390;2023-06-10T13:40:35;6.20;;;5.60;;
1879;SDS011;49285;49.002;8.390;2023-06-10T13:43:01;5.87;;;5.37;;
1879;SDS011;49285;49.002;8.390;2023-06-10T13:45:27;6.00;;;5.50;;
1879;SDS011;49285;49.002;8.390;2023-06-10T13:47:53;5.63;;;5.23;;
1879;SDS011;49285;49.002;8.390;2023-06-10T13:50:18;6.07;;;5.57;;
1879;SDS011;49285;49.002;8.390;2023-06-10T13:52:44;8.40;;;5.47;;
1879;SDS011;49285;49.002;8.390;2023-06-10T13:55:10;6.60;;;6.10;;
1879;SDS011;49285;49.002;8.390;2023-06-10T13:57:35;6.20;;;5.70;;
1879;SDS011;49285;49.002;8.390;2023-06-10T14:00:01;6.20;;;5.70;;
1879;SDS011;49285;49.002;8.390;2023-06-10T14:02:27;6.23;;;5.73;;
1879;SDS011;49285;49.002;8.390;2023-06-10T14:04:53;5.83;;;5.33;;
1879;SDS011;49285;49.002;8.390;2023-06-10T14:07:18;6.73;;;5.30;;
1879;SDS011;49285;49.002;8.390;2023-06-10T14:09:44;5.67;;;5.23;;
1879;SDS011;49285;49.002;8.390;2023-06-10T14:12:10;6.03;;;5.53;;
1879;SDS011;49285;49.002;8.390;2023-06-10T14:14:36;6.40;;;5.90;;
1879;SDS011;49285;49.002;8.390;2023-06-10T14:17:02;6.13;;;5.47;;
1879;SDS011;49285;49.002;8.390;2023-06-10T14:19:29;6.47;;;5.87;;
1879;SDS011;49285;49.002;8.390;2023-06-10T14:21:54;7.00;;;6.30;;
1879;SDS011;49285;49.002;8.390;2023-06-10T14:24:23;6.30;;;5.53;;
1879;SDS011;49285;49.002;8.390;2023-06-10T14:26:48;6.20;;;5.70;;
1879;SDS011;49285;49.002;8.390;2023-06-10T14:29:16;6.13;;;5.63;;
1879;SDS011;49285;49.002;8.390;2023-06-10T14:31:43;5.80;;;5.40;;
1879;SDS011;49285;49.002;8.390;2023-06-10T14:34:09;6.80;;;5.77;;
1879;SDS011;49285;49.002;8.390;2023-06-10T14:36:34;6.20;;;5.53;;
1879;SDS011;49285;49.002;8.390;2023-06-10T14:39:00;5.93;;;5.50;;
1879;SDS011;49285;49.002;8.390;2023-06-10T14:41:26;5.23;;;4.83;;
1879;SDS011;49285;49.002;8.390;2023-06-10T14:43:51;5.33;;;4.93;;
1879;SDS011;49285;49.002;8.390;2023-06-10T14:46:17;6.13;;;5.63;;
1879;SDS011;49285;49.002;8.390;2023-06-10T14:48:45;5.33;;;4.90;;
1879;SDS011;49285;49.002;8.390;2023-06-10T14:51:11;5.67;;;5.17;;
1879;SDS011;49285;49.002;8.390;2023-06-10T14:53:36;7.53;;;5.53;;
1879;SDS011;49285;49.002;8.390;2023-06-10T14:56:02;5.43;;;5.03;;
1879;SDS011;49285;49.002;8.390;2023-06-10T14:58:28;6.07;;;5.57;;
1879;SDS011;49285;49.002;8.390;2023-06-10T15:00:53;5.70;;;5.20;;
1879;SDS011;49285;49.002;8.390;2023-06-10T15:03:19;5.63;;;5.17;;
1879;SDS011;49285;49.002;8.390;2023-06-10T15:05:45;5.30;;;4.90;;
1879;SDS011;49285;49.002;8.390;2023-06-10T15:08:10;5.13;;;4.70;;
1879;SDS011;49285;49.002;8.390;2023-06-10T15:10:36;6.07;;;5.57;;
1879;SDS011;49285;49.002;8.390;2023-06-10T15:13:02;4.90;;;4.50;;
1879;SDS011;49285;49.002;8.390;2023-06-10T15:15:28;5.63;;;5.10;;
1879;SDS011;49285;49.002;8.390;2023-06-10T15:17:53;5.00;;;4.60;;
1879;SDS011;49285;49.002;8.390;2023-06-10T15:20:20;6.33;;;5.70;;
1879;SDS011;49285;49.002;8.390;2023-06-10T15:22:46;5.20;;;4.80;;
1879;SDS011;49285;49.002;8.390;2023-06-10T15:25:11;5.20;;;4.80;;
1879;SDS011;49285;49.002;8.390;2023-06-10T15:27:37;5.70;;;5.20;;